Estero, Florida
Current Conditions -  °F | °C
As of 12:53 AM on Monday 26 Jan 2015 (Local Time) from KRSW Reporting Station
Clear Clear  
Wind Chill: 55°   Ceiling: Unl
Heat Index: 55°   Visibility: 10mi
Dew Point: 53°   Wind: 7mph
Humidity: 93%   Direction: 170°S
Pressure: 29.96"   Gusts: NA
Location:  26.44°N, 81.81°W
Report Text: KRSW 260553Z AUTO 17006KT 10SM CLR 13/12 A2996 RMK AO2 SLP143 T01280117 10156 20106 58021
Loading
Personal Weather Stations






























Interactive Weather Map New forecast layout! Learn more

10-Day Weather Forecast

Advertisements
Track Severe Weather on mobile